createdAt,value
2018-03-14T00:02:27.872Z,100277.56
2018-03-14T00:05:33.442Z,100274.61
2018-03-14T00:08:39.021Z,100274.59
2018-03-14T00:11:44.613Z,100273.34
2018-03-14T00:14:50.147Z,100277.95
2018-03-14T00:17:55.659Z,100290.70
2018-03-14T00:21:01.216Z,100292.00
2018-03-14T00:24:07.009Z,100292.42
2018-03-14T00:27:12.751Z,100295.40
2018-03-14T00:30:18.273Z,100302.59
2018-03-14T00:33:23.851Z,100303.02
2018-03-14T00:36:29.373Z,100303.47
2018-03-14T00:39:35.041Z,100294.58
2018-03-14T00:42:40.559Z,100293.33
2018-03-14T00:45:46.340Z,100295.44
2018-03-14T00:48:51.857Z,100298.02
2018-03-14T00:51:57.628Z,100305.23
2018-03-14T00:55:03.398Z,100294.65
2018-03-14T00:58:15.948Z,100296.77
2018-03-14T01:01:21.565Z,100292.98
2018-03-14T01:04:27.127Z,100292.16
2018-03-14T01:07:36.232Z,100299.75
2018-03-14T01:10:41.756Z,100304.86
2018-03-14T01:13:47.317Z,100309.06
2018-03-14T01:16:53.105Z,100310.30
2018-03-14T01:19:58.675Z,100307.81
2018-03-14T01:23:04.197Z,100311.67
2018-03-14T01:26:09.757Z,100312.52
2018-03-14T01:29:15.639Z,100317.60
2018-03-14T01:32:21.221Z,100321.46
2018-03-14T01:35:26.798Z,100319.81
2018-03-14T01:38:32.370Z,100322.77
2018-03-14T01:41:37.981Z,100317.69
2018-03-14T01:44:43.504Z,100321.89
2018-03-14T01:47:49.622Z,100324.46
2018-03-14T01:50:55.359Z,100334.64
2018-03-14T01:54:00.687Z,100330.83
2018-03-14T01:57:06.257Z,100338.00
2018-03-14T02:00:11.871Z,100338.08
2018-03-14T02:03:17.225Z,100337.23
2018-03-14T02:06:23.229Z,100348.28
2018-03-14T02:09:28.768Z,100347.45
2018-03-14T02:12:34.317Z,100352.98
2018-03-14T02:15:39.928Z,100361.44
2018-03-14T02:18:45.727Z,100355.48
2018-03-14T02:21:51.257Z,100356.33
2018-03-14T02:24:56.823Z,100361.06
2018-03-14T02:28:02.615Z,100363.98
2018-03-14T02:31:08.172Z,100371.23
2018-03-14T02:34:14.181Z,100372.95
2018-03-14T02:37:19.785Z,100383.98
2018-03-14T02:40:25.349Z,100380.98
2018-03-14T02:43:33.178Z,100389.52
2018-03-14T02:46:38.747Z,100394.20
2018-03-14T02:49:44.281Z,100393.77
2018-03-14T02:52:49.812Z,100396.33
2018-03-14T02:55:55.357Z,100398.88
2018-03-14T02:59:00.896Z,100405.20
2018-03-14T03:02:06.473Z,100407.00
2018-03-14T03:05:11.969Z,100407.46
2018-03-14T03:08:17.533Z,100415.95
2018-03-14T03:11:23.039Z,100415.97
2018-03-14T03:14:28.581Z,100415.61
2018-03-14T03:17:34.072Z,100419.44
2018-03-14T03:20:39.602Z,100419.05
2018-03-14T03:23:45.109Z,100418.61
2018-03-14T03:26:50.661Z,100422.83
2018-03-14T03:29:56.358Z,100424.98
2018-03-14T03:33:02.329Z,100430.97
2018-03-14T03:36:07.915Z,100435.56
2018-03-14T03:39:13.437Z,100441.63
2018-03-14T03:42:19.009Z,100446.72
2018-03-14T03:45:24.522Z,100455.60
2018-03-14T03:48:30.125Z,100458.14
2018-03-14T03:51:35.668Z,100465.77
2018-03-14T03:54:41.165Z,100471.73
2018-03-14T03:57:46.700Z,100469.64
2018-03-14T04:00:52.217Z,100472.59
2018-03-14T04:03:57.797Z,100478.11
2018-03-14T04:07:03.486Z,100479.00
2018-03-14T04:10:08.989Z,100480.66
2018-03-14T04:13:14.557Z,100486.61
2018-03-14T04:16:20.064Z,100489.13
2018-03-14T04:19:25.614Z,100495.50
2018-03-14T04:22:31.550Z,100492.19
2018-03-14T04:25:37.098Z,100498.08
2018-03-14T04:28:42.624Z,100503.19
2018-03-14T04:31:48.165Z,100504.89
2018-03-14T04:34:53.724Z,100511.24
2018-03-14T04:37:59.267Z,100507.02
2018-03-14T04:41:04.840Z,100513.33
2018-03-14T04:44:10.385Z,100510.86
2018-03-14T04:47:16.137Z,100509.16
2018-03-14T04:50:21.657Z,100509.63
2018-03-14T04:53:27.212Z,100514.67
2018-03-14T04:56:32.745Z,100510.49
2018-03-14T04:59:38.281Z,100517.25
2018-03-14T05:02:43.812Z,100521.48
2018-03-14T05:05:54.269Z,100527.01
2018-03-14T05:09:04.019Z,100532.91
2018-03-14T05:12:10.450Z,100533.81
2018-03-14T05:15:16.019Z,100536.30
2018-03-14T05:18:21.515Z,100533.38
2018-03-14T05:21:27.067Z,100538.05
2018-03-14T05:24:32.566Z,100536.77
2018-03-14T05:27:38.092Z,100542.27
2018-03-14T05:30:43.672Z,100553.33
2018-03-14T05:33:49.205Z,100555.00
2018-03-14T05:36:54.741Z,100560.53
2018-03-14T05:40:00.283Z,100566.02
2018-03-14T05:43:05.883Z,100572.42
2018-03-14T05:46:11.462Z,100575.84
2018-03-14T05:49:17.112Z,100569.07
2018-03-14T05:52:22.615Z,100571.57
2018-03-14T05:55:28.153Z,100570.36
2018-03-14T05:58:33.667Z,100575.44
2018-03-14T06:01:39.210Z,100577.98
2018-03-14T06:04:44.789Z,100572.89
2018-03-14T06:07:50.163Z,100579.22
2018-03-14T06:10:55.724Z,100580.93
2018-03-14T06:14:01.241Z,100581.36
2018-03-14T06:17:06.785Z,100588.14
2018-03-14T06:20:12.334Z,100593.64
2018-03-14T06:23:17.927Z,100595.73
2018-03-14T06:26:23.572Z,100603.80
2018-03-14T06:29:29.122Z,100613.94
2018-03-14T06:32:34.706Z,100613.94
2018-03-14T06:35:45.850Z,100618.17
2018-03-14T06:38:51.949Z,100622.83
2018-03-14T06:41:57.341Z,100625.27
2018-03-14T06:45:02.881Z,100632.92
2018-03-14T06:48:08.614Z,100638.05
2018-03-14T06:51:14.195Z,100640.98
2018-03-14T06:54:19.793Z,100644.69
2018-03-14T06:57:25.347Z,100646.81
2018-03-14T07:00:42.161Z,100644.73
2018-03-14T07:07:24.501Z,100654.81
2018-03-14T07:10:33.036Z,100661.11
2018-03-14T07:13:38.435Z,100662.38
2018-03-14T07:16:44.018Z,100667.02
2018-03-14T07:19:49.565Z,100664.89
2018-03-14T07:22:55.126Z,100669.54
2018-03-14T07:26:00.627Z,100677.47
2018-03-14T07:29:06.167Z,100676.63
2018-03-14T07:32:11.701Z,100669.85
2018-03-14T07:35:17.312Z,100673.20
2018-03-14T07:38:22.821Z,100676.17
2018-03-14T07:41:28.441Z,100681.63
2018-03-14T07:44:33.968Z,100675.28
2018-03-14T07:47:39.508Z,100682.86
2018-03-14T07:50:45.059Z,100683.25
2018-03-14T07:53:50.648Z,100692.52
2018-03-14T07:56:56.213Z,100691.98
2018-03-14T08:00:01.762Z,100696.66
2018-03-14T08:03:07.315Z,100697.02
2018-03-14T08:06:12.857Z,100688.53
2018-03-14T08:09:18.365Z,100693.09
2018-03-14T08:12:23.927Z,100692.64
2018-03-14T08:15:29.290Z,100697.67
2018-03-14T08:18:34.830Z,100696.37
2018-03-14T08:21:40.383Z,100698.41
2018-03-14T08:24:45.912Z,100697.92
2018-03-14T08:27:51.482Z,100700.86
2018-03-14T08:30:57.063Z,100705.05
2018-03-14T08:34:02.622Z,100707.53
2018-03-14T08:37:08.022Z,100708.33
2018-03-14T08:40:13.566Z,100720.94
2018-03-14T08:43:19.128Z,100715.88
2018-03-14T08:46:24.663Z,100719.63
2018-03-14T08:49:30.192Z,100722.12
2018-03-14T08:52:35.754Z,100732.21
2018-03-14T08:55:41.348Z,100738.11
2018-03-14T08:58:46.930Z,100738.47
2018-03-14T09:01:52.471Z,100741.84
2018-03-14T09:04:58.092Z,100740.88
2018-03-14T09:08:03.588Z,100744.24
2018-03-14T09:11:09.162Z,100749.28
2018-03-14T09:14:14.657Z,100752.22
2018-03-14T09:17:20.186Z,100753.77
2018-03-14T09:20:25.697Z,100761.84
2018-03-14T09:23:33.852Z,100758.47
2018-03-14T09:26:39.364Z,100755.44
2018-03-14T09:29:44.917Z,100760.06
2018-03-14T09:32:50.475Z,100754.45
2018-03-14T09:35:56.004Z,100756.52
2018-03-14T09:39:01.589Z,100764.48
2018-03-14T09:42:06.886Z,100772.50
2018-03-14T09:45:12.428Z,100766.91
2018-03-14T09:48:18.040Z,100765.16
2018-03-14T09:51:23.618Z,100762.11
2018-03-14T09:54:29.147Z,100765.91
2018-03-14T09:57:34.699Z,100770.09
2018-03-14T10:00:40.282Z,100771.32
2018-03-14T10:03:45.829Z,100767.94
2018-03-14T10:06:52.213Z,100774.17
2018-03-14T10:09:57.754Z,100778.88
2018-03-14T10:13:03.291Z,100774.14
2018-03-14T10:16:08.926Z,100777.56
2018-03-14T10:19:14.426Z,100780.95
2018-03-14T10:22:20.219Z,100787.71
2018-03-14T10:25:26.017Z,100788.52
2018-03-14T10:28:31.588Z,100785.07
2018-03-14T10:31:37.081Z,100786.74
2018-03-14T10:34:42.617Z,100780.41
2018-03-14T10:37:48.114Z,100778.72
2018-03-14T10:40:53.646Z,100780.41
2018-03-14T10:43:59.186Z,100790.56
2018-03-14T10:47:05.133Z,100795.64
2018-03-14T10:50:10.677Z,100799.87
2018-03-14T10:53:16.171Z,100808.34
2018-03-14T10:56:21.712Z,100799.02
2018-03-14T10:59:27.214Z,100803.71
2018-03-14T11:02:32.667Z,100799.44
2018-03-14T11:05:38.210Z,100799.00
2018-03-14T11:08:43.722Z,100799.00
2018-03-14T11:11:49.258Z,100798.19
2018-03-14T11:14:54.753Z,100804.53
2018-03-14T11:18:00.329Z,100807.95
2018-03-14T11:21:05.889Z,100802.44
2018-03-14T11:24:11.462Z,100801.88
2018-03-14T11:27:17.002Z,100805.41
2018-03-14T11:30:22.513Z,100807.95
2018-03-14T11:33:28.061Z,100806.23
2018-03-14T11:36:33.568Z,100808.41
2018-03-14T11:39:39.226Z,100803.67
2018-03-14T11:42:44.774Z,100809.22
2018-03-14T11:45:50.328Z,100808.41
2018-03-14T11:48:55.878Z,100812.20
2018-03-14T11:52:01.372Z,100810.03
2018-03-14T11:55:06.918Z,100807.00
2018-03-14T11:58:12.413Z,100806.16
2018-03-14T12:01:17.957Z,100809.94
2018-03-14T12:04:23.473Z,100809.04
2018-03-14T12:07:29.104Z,100811.58
2018-03-14T12:10:34.629Z,100812.81
2018-03-14T12:13:40.206Z,100813.22
2018-03-14T12:16:45.805Z,100814.86
2018-03-14T12:19:51.386Z,100817.80
2018-03-14T12:22:56.906Z,100811.05
2018-03-14T12:26:02.454Z,100816.95
2018-03-14T12:29:07.948Z,100810.14
2018-03-14T12:32:13.497Z,100812.66
2018-03-14T12:35:18.995Z,100808.01
2018-03-14T12:38:24.547Z,100807.98
2018-03-14T12:41:30.047Z,100803.70
2018-03-14T12:44:35.596Z,100794.00
2018-03-14T12:47:41.095Z,100799.00
2018-03-14T12:50:46.640Z,100808.30
2018-03-14T12:53:52.134Z,100805.31
2018-03-14T12:56:57.711Z,100804.84
2018-03-14T13:00:03.226Z,100807.34
2018-03-14T13:03:16.478Z,100806.47
2018-03-14T13:06:22.041Z,100801.39
2018-03-14T13:09:27.595Z,100799.70
2018-03-14T13:12:33.149Z,100799.64
2018-03-14T13:15:38.697Z,100802.16
2018-03-14T13:18:44.195Z,100804.66
2018-03-14T13:21:49.732Z,100801.62
2018-03-14T13:24:55.247Z,100797.83
2018-03-14T13:28:00.795Z,100795.22
2018-03-14T13:31:06.335Z,100794.37
2018-03-14T13:34:11.600Z,100804.09
2018-03-14T13:37:17.138Z,100802.38
2018-03-14T13:40:22.680Z,100806.63
2018-03-14T13:43:28.189Z,100792.17
2018-03-14T13:46:33.725Z,100801.03
2018-03-14T13:49:44.393Z,100802.73
2018-03-14T13:52:49.949Z,100791.27
2018-03-14T13:55:55.452Z,100790.81
2018-03-14T13:59:01.023Z,100804.80
2018-03-14T14:02:06.774Z,100797.55
2018-03-14T14:05:12.315Z,100789.92
2018-03-14T14:08:17.870Z,100785.20
2018-03-14T14:11:23.625Z,100799.63
2018-03-14T14:14:29.476Z,100798.77
2018-03-14T14:17:35.010Z,100795.76
2018-03-14T14:20:45.308Z,100792.81
2018-03-14T14:23:50.800Z,100789.36
2018-03-14T14:26:56.344Z,100790.64
2018-03-14T14:30:01.842Z,100788.55
2018-03-14T14:33:07.409Z,100783.86
2018-03-14T14:36:12.950Z,100786.81
2018-03-14T14:39:18.469Z,100781.77
2018-03-14T14:42:24.187Z,100786.41
2018-03-14T14:45:29.757Z,100782.61
2018-03-14T14:48:35.303Z,100781.75
2018-03-14T14:51:40.802Z,100785.59
2018-03-14T14:54:46.345Z,100778.80
2018-03-14T14:57:51.907Z,100784.74
2018-03-14T15:00:57.414Z,100781.36
2018-03-14T15:04:02.997Z,100774.16
2018-03-14T15:07:08.499Z,100771.66
2018-03-14T15:10:14.048Z,100771.66
2018-03-14T15:13:19.591Z,100764.12
2018-03-14T15:16:25.227Z,100758.16
2018-03-14T15:19:30.770Z,100766.66
2018-03-14T15:22:36.305Z,100760.73
2018-03-14T15:25:41.805Z,100760.81
2018-03-14T15:28:47.348Z,100762.51
2018-03-14T15:31:52.897Z,100763.80
2018-03-14T15:34:58.434Z,100762.55
2018-03-14T15:38:04.044Z,100764.74
2018-03-14T15:41:09.554Z,100757.65
2018-03-14T15:44:15.090Z,100754.72
2018-03-14T15:47:20.584Z,100758.99
2018-03-14T15:50:29.837Z,100756.07
2018-03-14T15:53:37.002Z,100751.86
2018-03-14T15:56:42.549Z,100759.53
2018-03-14T15:59:48.070Z,100765.60
2018-03-14T16:02:53.621Z,100763.52
2018-03-14T16:05:59.400Z,100764.33
2018-03-14T16:09:05.263Z,100754.16
2018-03-14T16:12:13.871Z,100759.27
2018-03-14T16:15:21.628Z,100760.18
2018-03-14T16:18:27.193Z,100764.00
2018-03-14T16:21:33.115Z,100762.78
2018-03-14T16:24:54.157Z,100758.97
2018-03-14T16:28:00.396Z,100763.64
2018-03-14T16:31:06.353Z,100764.50
2018-03-14T16:34:11.896Z,100765.79
2018-03-14T16:37:17.383Z,100767.95
2018-03-14T16:40:22.922Z,100768.45
2018-03-14T16:43:30.198Z,100767.69
2018-03-14T16:46:35.567Z,100764.70
2018-03-14T16:49:41.270Z,100760.08
2018-03-14T16:52:46.850Z,100761.78
2018-03-14T16:55:53.903Z,100754.20
2018-03-14T16:59:02.745Z,100762.69
2018-03-14T17:02:11.279Z,100766.53
2018-03-14T17:05:21.483Z,100764.91
2018-03-14T17:08:29.894Z,100765.38
2018-03-14T17:11:38.452Z,100760.73
2018-03-14T17:14:46.073Z,100762.04
2018-03-14T17:17:55.965Z,100765.08
2018-03-14T17:21:05.573Z,100764.27
2018-03-14T17:24:20.597Z,100768.48
2018-03-14T17:27:33.712Z,100776.61
2018-03-14T17:30:44.929Z,100778.39
2018-03-14T17:33:53.534Z,100772.47
2018-03-14T17:37:22.109Z,100761.94
2018-03-14T17:40:39.239Z,100755.59
2018-03-14T17:43:51.673Z,100752.63
2018-03-14T17:47:08.437Z,100759.89
2018-03-14T17:50:23.634Z,100748.43
2018-03-14T17:53:39.310Z,100745.51
2018-03-14T17:56:55.261Z,100748.94
2018-03-14T18:00:11.126Z,100751.95
2018-03-14T18:03:25.713Z,100751.98
2018-03-14T18:06:40.277Z,100751.15
2018-03-14T18:09:50.304Z,100755.87
2018-03-14T18:13:12.207Z,100754.98
2018-03-14T18:16:26.990Z,100760.94
2018-03-14T18:19:35.166Z,100758.84
2018-03-14T18:26:12.778Z,100751.28
2018-03-14T18:29:41.376Z,100760.25
2018-03-14T18:33:00.338Z,100751.41
2018-03-14T18:36:10.554Z,100751.83
2018-03-14T18:39:21.855Z,100748.07
2018-03-14T18:42:34.679Z,100751.86
2018-03-14T18:45:57.480Z,100746.37
2018-03-14T18:49:19.571Z,100742.30
2018-03-14T18:56:08.988Z,100750.87
2018-03-14T18:59:30.149Z,100752.54
2018-03-14T19:02:54.746Z,100753.03
2018-03-14T19:06:10.548Z,100747.58
2018-03-14T19:09:35.248Z,100753.13
2018-03-14T19:12:55.932Z,100753.12
2018-03-14T19:16:06.865Z,100755.30
2018-03-14T19:19:14.398Z,100750.69
2018-03-14T19:22:19.974Z,100754.08
2018-03-14T19:25:25.481Z,100755.75
2018-03-14T19:28:31.861Z,100755.78
2018-03-14T19:31:38.020Z,100759.14
2018-03-14T19:34:43.813Z,100751.17
2018-03-14T19:37:49.353Z,100751.66
2018-03-14T19:40:55.191Z,100752.11
2018-03-14T19:44:00.686Z,100752.95
2018-03-14T19:47:06.234Z,100753.82
2018-03-14T19:50:16.748Z,100759.37
2018-03-14T19:53:25.548Z,100756.43
2018-03-14T19:56:31.174Z,100766.20
2018-03-14T19:59:36.739Z,100766.66
2018-03-14T20:02:42.431Z,100765.41
2018-03-14T20:05:48.012Z,100759.47
2018-03-14T20:08:53.775Z,100758.65
2018-03-14T20:11:59.408Z,100754.42
2018-03-14T20:15:04.736Z,100752.70
2018-03-14T20:18:10.330Z,100756.14
2018-03-14T20:21:15.897Z,100755.73
2018-03-14T20:24:21.411Z,100749.41
2018-03-14T20:27:26.970Z,100750.67
2018-03-14T20:30:35.326Z,100746.89
2018-03-14T20:33:40.909Z,100747.34
2018-03-14T20:36:46.504Z,100743.13
2018-03-14T20:39:52.961Z,100739.77
2018-03-14T20:42:59.346Z,100740.23
2018-03-14T20:46:05.174Z,100740.70
2018-03-14T20:49:10.712Z,100738.11
2018-03-14T20:52:16.226Z,100728.81
2018-03-14T20:55:24.043Z,100733.48
2018-03-14T20:58:31.581Z,100730.14
2018-03-14T21:01:37.146Z,100725.89
2018-03-14T21:04:43.710Z,100724.27
2018-03-14T21:07:49.628Z,100718.76
2018-03-14T21:10:55.267Z,100714.13
2018-03-14T21:14:08.325Z,100714.15
2018-03-14T21:17:20.098Z,100711.99
2018-03-14T21:23:44.102Z,100710.38
2018-03-14T21:26:49.967Z,100705.73
2018-03-14T21:29:55.474Z,100712.50
2018-03-14T21:33:01.019Z,100709.95
2018-03-14T21:36:06.574Z,100707.42
2018-03-14T21:39:12.118Z,100709.59
2018-03-14T21:42:17.429Z,100710.02
2018-03-14T21:45:23.049Z,100703.66
2018-03-14T21:48:28.734Z,100706.15
2018-03-14T21:51:34.276Z,100702.02
2018-03-14T21:54:39.545Z,100704.14
2018-03-14T21:57:45.055Z,100710.88
2018-03-14T22:00:50.326Z,100704.58
2018-03-14T22:03:56.232Z,100705.36
2018-03-14T22:07:01.805Z,100702.45
2018-03-14T22:10:07.314Z,100704.58
2018-03-14T22:13:12.949Z,100712.24
2018-03-14T22:16:18.649Z,100706.31
2018-03-14T22:19:24.200Z,100703.36
2018-03-14T22:22:37.249Z,100700.38
2018-03-14T22:25:48.205Z,100697.00
2018-03-14T22:29:02.290Z,100687.31
2018-03-14T22:32:28.841Z,100687.34
2018-03-14T22:35:41.476Z,100690.72
2018-03-14T22:38:52.566Z,100686.05
2018-03-14T22:42:03.410Z,100688.61
2018-03-14T22:45:11.685Z,100690.36
2018-03-14T22:48:24.319Z,100678.86
2018-03-14T22:51:33.400Z,100684.37
2018-03-14T22:54:39.922Z,100679.71
2018-03-14T22:57:46.460Z,100676.17
2018-03-14T23:00:53.509Z,100682.09
2018-03-14T23:03:59.364Z,100684.22
2018-03-14T23:07:05.554Z,100683.38
2018-03-14T23:10:11.564Z,100691.87
2018-03-14T23:13:17.832Z,100686.34
2018-03-14T23:16:24.520Z,100685.02
2018-03-14T23:19:32.604Z,100679.16
2018-03-14T23:22:40.419Z,100674.87
2018-03-14T23:25:47.525Z,100671.94
2018-03-14T23:28:55.011Z,100670.69
2018-03-14T23:32:00.997Z,100666.03
2018-03-14T23:35:06.571Z,100665.19
2018-03-14T23:38:12.088Z,100665.23
2018-03-14T23:41:17.638Z,100664.37
2018-03-14T23:44:23.145Z,100668.13
2018-03-14T23:47:28.717Z,100660.15
2018-03-14T23:50:35.718Z,100663.98
2018-03-14T23:53:41.285Z,100670.36
2018-03-14T23:56:46.792Z,100670.36
2018-03-14T23:59:52.340Z,100675.85
